Time;durP1;ratioP1;P1;durP2;ratioP2;P2;SDS_P1;SDS_P2;PMS_P1;PMS_P2;Temp;Humidity;BMP_temperature;BMP_pressure;BME280_temperature;BME280_humidity;BME280_pressure;Samples;Min_cycle;Max_cycle;Signal;HPM_P1;HPM_P2
2022/11/18 00:02:58;;;;;;;5.17;2.30;;;;;;;13.04;53.40;97884.06;10348970;28;20229;-72
2022/11/18 00:08:00;;;;;;;3.90;2.27;;;;;;;12.41;53.37;97907.47;10346570;28;20217;-71
2022/11/18 00:18:22;;;;;;;5.63;4.10;;;;;;;12.94;52.16;97948.34;10353735;28;20329;-68
2022/11/18 00:23:23;;;;;;;5.90;3.50;;;;;;;13.74;51.28;97932.00;10356201;28;20232;-69
2022/11/18 00:28:25;;;;;;;3.87;2.40;;;;;;;13.97;50.87;97931.75;10356793;28;20240;-71
2022/11/18 00:33:28;;;;;;;5.43;3.00;;;;;;;13.87;51.62;97952.31;10351255;28;20646;-69
2022/11/18 00:38:30;;;;;;;3.00;2.70;;;;;;;13.98;51.53;97948.69;10357476;28;20239;-70
2022/11/18 00:43:33;;;;;;;3.33;2.70;;;;;;;13.82;50.76;97948.50;10357107;28;20276;-71
2022/11/18 00:48:35;;;;;;;3.10;2.80;;;;;;;14.08;50.63;97931.88;10353437;28;20686;-70
2022/11/18 00:53:37;;;;;;;3.57;2.63;;;;;;;15.17;48.70;97956.00;10359932;28;20744;-70
2022/11/18 00:58:38;;;;;;;3.43;3.13;;;;;;;14.26;50.16;97952.25;10356897;28;20629;-70
2022/11/18 01:03:40;;;;;;;3.33;2.60;;;;;;;15.17;48.39;97959.53;10352254;28;20288;-70
2022/11/18 01:08:42;;;;;;;4.90;2.40;;;;;;;14.81;48.63;97958.41;10355988;28;20891;-70
2022/11/18 01:13:43;;;;;;;2.93;2.20;;;;;;;15.40;48.00;97954.81;10347213;28;20238;-70
2022/11/18 01:18:45;;;;;;;2.63;2.43;;;;;;;14.66;49.50;97975.22;10355002;28;20649;-71
2022/11/18 01:23:47;;;;;;;7.83;2.30;;;;;;;14.28;49.63;97980.53;10359325;28;20324;-71
2022/11/18 01:28:49;;;;;;;2.97;2.00;;;;;;;12.65;52.35;98033.47;10351712;28;20237;-70
2022/11/18 01:33:51;;;;;;;2.30;2.10;;;;;;;11.49;54.49;98053.84;10356060;28;20232;-69
2022/11/18 01:38:54;;;;;;;4.30;2.47;;;;;;;12.19;54.15;98042.22;10349466;28;20237;-70
2022/11/18 01:43:58;;;;;;;2.80;2.57;;;;;;;12.82;53.58;98003.97;10355639;28;20260;-70
2022/11/18 01:49:07;;;;;;;2.63;2.43;;;;;;;11.97;54.44;98042.03;10350910;28;20264;-70
2022/11/18 01:54:15;;;;;;;3.10;2.50;;;;;;;12.31;55.29;97983.19;10351844;28;20237;-69
2022/11/18 01:59:19;;;;;;;2.83;2.30;;;;;;;11.64;55.38;98037.31;10354043;28;20234;-71
2022/11/18 02:04:24;;;;;;;2.30;2.20;;;;;;;11.76;56.28;98066.75;10352009;28;20333;-68
2022/11/18 02:09:25;;;;;;;2.17;2.07;;;;;;;12.28;54.50;98007.00;10348851;28;20244;-70
2022/11/18 02:14:30;;;;;;;2.60;2.40;;;;;;;12.27;54.46;98024.97;10351564;28;20252;-69
2022/11/18 02:19:35;;;;;;;2.70;2.30;;;;;;;11.03;56.37;98096.34;10347835;28;20236;-69
2022/11/18 02:25:04;;;;;;;3.97;2.70;;;;;;;12.10;54.78;98046.34;10349418;28;20749;-69
2022/11/18 02:30:08;;;;;;;2.53;2.10;;;;;;;9.74;58.03;98051.00;10355218;28;20256;-69
2022/11/18 02:35:25;;;;;;;3.60;2.10;;;;;;;9.95;58.65;98090.66;10351346;28;20536;-70
2022/11/18 02:40:29;;;;;;;3.00;2.53;;;;;;;11.72;56.10;97994.09;10344017;28;20443;-69
2022/11/18 02:45:32;;;;;;;4.70;2.10;;;;;;;10.48;58.37;98099.97;10352897;28;20238;-70
2022/11/18 02:50:37;;;;;;;2.47;2.27;;;;;;;10.45;57.60;98102.28;10346603;28;20741;-70
2022/11/18 02:55:40;;;;;;;3.00;2.70;;;;;;;11.87;55.45;98028.44;10344628;28;20244;-70
2022/11/18 03:00:41;;;;;;;3.23;2.10;;;;;;;11.21;55.59;98103.50;10352738;28;20433;-70
2022/11/18 03:05:58;;;;;;;2.93;2.10;;;;;;;10.95;57.27;98099.38;10354329;28;20245;-70
2022/11/18 03:11:11;;;;;;;2.07;1.87;;;;;;;11.78;56.11;98029.84;10348070;28;20630;-70
2022/11/18 03:16:22;;;;;;;2.30;2.10;;;;;;;10.75;56.97;98133.59;10344313;28;20713;-70
2022/11/18 03:21:36;;;;;;;4.50;2.40;;;;;;;11.09;56.07;98104.53;10343269;28;20445;-70
2022/11/18 03:26:42;;;;;;;3.50;2.00;;;;;;;11.38;55.71;98066.16;10349266;28;20242;-70
2022/11/18 03:31:52;;;;;;;2.27;2.13;;;;;;;10.95;56.38;98144.88;10352398;28;20240;-70
2022/11/18 03:36:58;;;;;;;2.93;2.20;;;;;;;11.58;54.10;98073.84;10349408;28;20233;-70
2022/11/18 03:42:09;;;;;;;1.93;1.80;;;;;;;11.62;54.51;98104.53;10350950;28;20236;-70
2022/11/18 03:47:25;;;;;;;2.27;2.07;;;;;;;11.45;53.81;98128.44;10352593;28;20230;-70
2022/11/18 03:52:31;;;;;;;2.00;1.90;;;;;;;11.86;53.32;98125.97;10354789;28;20814;-70
2022/11/18 03:57:51;;;;;;;2.10;2.00;;;;;;;10.42;54.86;98194.44;10355716;28;20225;-74
2022/11/18 04:02:52;;;;;;;2.20;2.00;;;;;;;12.10;52.58;98128.66;10359669;28;20251;-70
2022/11/18 04:07:57;;;;;;;2.20;2.00;;;;;;;10.22;54.96;98196.50;10346989;28;20237;-70
2022/11/18 04:13:07;;;;;;;2.77;2.03;;;;;;;11.98;53.47;98128.66;10352015;28;20745;-69
2022/11/18 04:18:10;;;;;;;3.47;2.10;;;;;;;11.39;53.43;98212.41;10351379;28;20202;-70
2022/11/18 04:23:11;;;;;;;2.23;1.90;;;;;;;11.55;53.80;98228.88;10349292;28;20237;-70
2022/11/18 04:28:13;;;;;;;2.13;1.97;;;;;;;12.06;53.16;98167.69;10353698;28;20728;-69
2022/11/18 04:33:15;;;;;;;4.13;2.00;;;;;;;11.96;52.21;98219.19;10352256;28;20230;-70
2022/11/18 04:38:17;;;;;;;2.17;1.97;;;;;;;11.38;53.02;98252.81;10354920;28;20257;-71
2022/11/18 04:43:22;;;;;;;2.37;2.10;;;;;;;11.29;52.29;98255.00;10356312;28;20929;-72
2022/11/18 04:48:24;;;;;;;1.97;1.80;;;;;;;11.75;51.92;98258.91;10356966;28;20233;-72
2022/11/18 04:53:25;;;;;;;2.53;2.30;;;;;;;11.06;52.73;98291.31;10360086;28;20241;-75
2022/11/18 04:58:27;;;;;;;1.70;1.70;;;;;;;12.34;50.98;98213.38;10358261;28;20237;-71
2022/11/18 05:03:29;;;;;;;1.93;1.80;;;;;;;11.59;52.18;98307.72;10371916;28;20743;-71
2022/11/18 05:08:30;;;;;;;2.83;1.80;;;;;;;12.27;51.40;98222.59;10348504;28;20734;-73
2022/11/18 05:13:32;;;;;;;2.27;2.07;;;;;;;11.58;51.42;98285.50;10354958;28;20241;-69
2022/11/18 05:18:34;;;;;;;2.00;1.90;;;;;;;11.60;52.48;98304.84;10339535;28;20241;-69
2022/11/18 05:23:36;;;;;;;2.03;1.80;;;;;;;12.35;50.64;98241.00;10354725;28;20244;-70
2022/11/18 05:28:38;;;;;;;1.80;1.70;;;;;;;11.11;52.24;98338.81;10355056;28;20222;-71
2022/11/18 05:33:40;;;;;;;1.93;1.70;;;;;;;11.99;50.87;98304.53;10354476;28;20722;-71
2022/11/18 05:38:43;;;;;;;2.30;2.20;;;;;;;11.03;52.70;98350.63;10357670;28;20823;-72
2022/11/18 05:43:44;;;;;;;2.33;2.07;;;;;;;12.30;50.36;98259.66;10359010;28;20257;-71
2022/11/18 05:48:46;;;;;;;1.83;1.73;;;;;;;11.71;51.45;98356.03;10358822;28;20676;-71
2022/11/18 05:53:50;;;;;;;1.80;1.63;;;;;;;10.73;52.66;98336.31;10358226;28;20356;-71
2022/11/18 05:58:52;;;;;;;1.93;1.80;;;;;;;11.34;51.79;98354.22;10352316;28;20256;-71
2022/11/18 06:03:54;;;;;;;2.10;2.00;;;;;;;11.09;53.59;98353.50;10350788;28;20237;-71
2022/11/18 06:08:58;;;;;;;4.00;2.40;;;;;;;9.77;55.71;98313.19;10349558;28;20240;-71
2022/11/18 06:14:06;;;;;;;1.83;1.73;;;;;;;9.72;56.27;98338.88;10353370;28;20226;-71
2022/11/18 06:19:08;;;;;;;2.10;2.00;;;;;;;11.21;54.10;98284.75;10345583;28;20245;-71
2022/11/18 06:24:11;;;;;;;2.50;2.30;;;;;;;11.34;53.42;98313.22;10354739;28;20248;-71
2022/11/18 06:29:17;;;;;;;2.00;1.90;;;;;;;10.16;54.69;98379.97;10352283;28;20673;-71
2022/11/18 06:34:26;;;;;;;2.00;1.90;;;;;;;9.73;55.69;98333.31;10345305;28;20925;-71
2022/11/18 06:39:28;;;;;;;2.10;2.00;;;;;;;10.13;55.57;98361.69;10338131;28;20605;-71
2022/11/18 06:44:29;;;;;;;2.20;2.07;;;;;;;9.88;56.70;98356.31;10352528;28;20240;-71
2022/11/18 06:49:32;;;;;;;3.07;2.10;;;;;;;9.92;55.78;98387.72;10355379;28;20241;-71
2022/11/18 06:54:34;;;;;;;3.67;2.00;;;;;;;9.23;56.81;98354.53;10356140;28;20618;-71
2022/11/18 06:59:35;;;;;;;1.90;1.80;;;;;;;10.31;55.64;98364.44;10358660;28;20233;-71
2022/11/18 07:04:44;;;;;;;2.07;1.80;;;;;;;10.53;55.45;98353.38;10364994;28;20237;-71
2022/11/18 07:09:45;;;;;;;3.57;2.77;;;;;;;10.65;54.48;98389.06;10362830;28;20231;-71
2022/11/18 07:14:47;;;;;;;2.63;2.30;;;;;;;10.76;54.31;98366.13;10333752;28;20447;-71
2022/11/18 07:19:49;;;;;;;2.57;2.37;;;;;;;11.18;53.87;98358.31;10334499;28;20245;-72
2022/11/18 07:24:50;;;;;;;3.43;3.13;;;;;;;10.54;55.18;98421.84;10341365;28;20221;-71
2022/11/18 07:29:52;;;;;;;2.30;2.20;;;;;;;11.43;53.23;98379.66;10340951;28;20232;-71
2022/11/18 07:34:53;;;;;;;2.53;2.43;;;;;;;10.93;54.54;98414.56;10342752;28;20506;-72
2022/11/18 07:39:55;;;;;;;3.23;2.93;;;;;;;11.98;52.63;98348.47;10341679;28;20240;-69
2022/11/18 07:44:57;;;;;;;2.80;2.40;;;;;;;10.86;54.45;98448.59;10347544;28;20233;-69
2022/11/18 07:49:59;;;;;;;2.20;2.10;;;;;;;10.94;54.64;98448.31;10342490;28;20725;-70
2022/11/18 07:55:01;;;;;;;2.60;2.40;;;;;;;10.07;56.22;98478.31;10341901;28;20404;-72
2022/11/18 08:00:03;;;;;;;2.80;2.60;;;;;;;11.34;53.49;98447.94;10339657;28;20236;-71
2022/11/18 08:05:05;;;;;;;2.53;2.33;;;;;;;10.40;56.35;98482.66;10340806;28;20890;-71
2022/11/18 08:10:07;;;;;;;2.50;2.40;;;;;;;11.19;53.80;98467.03;10337440;28;20294;-72
2022/11/18 08:15:09;;;;;;;3.00;2.80;;;;;;;11.54;53.41;98439.72;10338803;28;20212;-71
2022/11/18 08:20:11;;;;;;;3.20;3.00;;;;;;;11.85;52.42;98451.31;10338740;28;20229;-71
2022/11/18 08:25:12;;;;;;;3.60;2.80;;;;;;;10.73;54.61;98492.31;10337439;28;20742;-71
2022/11/18 08:30:14;;;;;;;5.07;2.80;;;;;;;11.74;53.00;98458.28;10337207;28;20236;-68
2022/11/18 08:35:16;;;;;;;5.07;3.70;;;;;;;11.72;53.54;98446.94;10337854;28;20198;-69
2022/11/18 08:40:18;;;;;;;4.70;3.77;;;;;;;10.65;56.43;98522.00;10314841;28;20657;-70
2022/11/18 08:45:20;;;;;;;8.10;5.87;;;;;;;11.86;53.35;98452.97;10334515;28;20225;-70
2022/11/18 08:50:21;;;;;;;6.53;5.43;;;;;;;11.59;53.43;98485.41;10339023;28;20702;-70
2022/11/18 08:55:23;;;;;;;6.00;5.33;;;;;;;10.74;55.09;98546.66;10334776;28;20205;-69
2022/11/18 09:00:25;;;;;;;6.53;4.60;;;;;;;9.13;58.70;98451.03;10343070;28;20226;-71
2022/11/18 09:05:26;;;;;;;4.60;3.77;;;;;;;9.49;58.70;98468.41;10348703;28;20241;-71
2022/11/18 09:10:28;;;;;;;5.80;3.80;;;;;;;11.56;54.57;98447.53;10344678;28;20335;-70
2022/11/18 09:15:30;;;;;;;6.97;5.57;;;;;;;11.60;54.94;98487.03;10333996;28;20216;-70
2022/11/18 09:20:31;;;;;;;9.07;6.00;;;;;;;11.53;53.53;98472.88;10336990;28;20625;-71
2022/11/18 09:25:33;;;;;;;8.97;6.30;;;;;;;11.59;54.36;98504.16;10331574;28;20236;-71
2022/11/18 09:30:35;;;;;;;7.50;5.90;;;;;;;11.97;53.40;98448.69;10334656;28;20307;-70
2022/11/18 09:35:41;;;;;;;6.17;5.30;;;;;;;12.07;54.17;98480.34;10337282;28;20711;-69
2022/11/18 09:41:01;;;;;;;7.67;4.70;;;;;;;12.32;54.03;98470.28;9437935;28;10000224;-69
2022/11/18 09:46:19;;;;;;;5.90;4.60;;;;;;;12.29;53.48;98486.03;10336710;28;20221;-69
2022/11/18 09:51:26;;;;;;;8.07;4.43;;;;;;;10.84;56.22;98555.03;10333937;28;20353;-69
2022/11/18 09:56:27;;;;;;;7.07;5.00;;;;;;;12.21;54.55;98494.38;10332226;28;20205;-70
2022/11/18 10:01:30;;;;;;;5.57;5.07;;;;;;;13.58;51.50;98498.03;10327030;28;20685;-70
2022/11/18 10:06:35;;;;;;;8.53;5.30;;;;;;;11.80;54.23;98569.91;10333829;28;20229;-70
2022/11/18 10:11:44;;;;;;;9.37;5.30;;;;;;;11.95;54.49;98558.03;10324836;28;20706;-71
2022/11/18 10:16:55;;;;;;;7.67;4.83;;;;;;;11.98;54.81;98581.72;10332059;28;20715;-70
2022/11/18 10:22:22;;;;;;;8.33;5.63;;;;;;;13.01;52.69;98528.13;10333048;28;20238;-71
2022/11/18 10:27:33;;;;;;;6.70;4.60;;;;;;;13.10;52.46;98524.06;10335457;28;20817;-70
2022/11/18 10:32:55;;;;;;;6.60;5.37;;;;;;;12.77;52.71;98576.41;10337223;28;20229;-71
2022/11/18 10:38:21;;;;;;;8.03;5.20;;;;;;;11.66;54.64;98624.69;10342409;28;20217;-72
2022/11/18 10:43:49;;;;;;;5.47;4.07;;;;;;;11.79;54.19;98607.66;10332196;28;20627;-69
2022/11/18 10:49:09;;;;;;;3.77;3.20;;;;;;;11.95;53.87;98574.09;10324164;28;20240;-69
2022/11/18 10:54:22;;;;;;;3.70;2.70;;;;;;;11.82;54.36;98588.47;10335421;28;20786;-70
2022/11/18 10:59:30;;;;;;;5.53;3.20;;;;;;;11.67;54.33;98596.84;10325352;28;20652;-69
2022/11/18 11:06:27;;;;;;;4.33;3.27;;;;;;;9.49;59.94;98591.25;10567762;27;20313;-72
2022/11/18 11:11:32;;;;;;;4.93;2.80;;;;;;;9.31;60.00;98583.03;10543417;28;20621;-69
2022/11/18 11:16:42;;;;;;;5.77;2.80;;;;;;;10.23;58.11;98567.88;10537794;28;20885;-69
2022/11/18 11:21:44;;;;;;;6.03;3.07;;;;;;;10.04;58.25;98607.03;10535799;28;20241;-70
2022/11/18 11:26:55;;;;;;;5.83;3.40;;;;;;;10.34;57.69;98593.13;10532983;28;20203;-71
2022/11/18 11:32:45;;;;;;;5.97;2.93;;;;;;;9.97;57.20;98579.47;10539243;28;20313;-71
2022/11/18 11:37:54;;;;;;;5.00;2.37;;;;;;;9.77;56.84;98617.72;10541026;28;20206;-69
2022/11/18 11:43:10;;;;;;;6.33;2.60;;;;;;;10.26;57.07;98588.84;10537797;28;20458;-72
2022/11/18 11:48:12;;;;;;;4.20;2.80;;;;;;;10.21;56.49;98633.28;10537797;28;20220;-69
2022/11/18 11:53:19;;;;;;;7.23;2.97;;;;;;;10.80;55.33;98593.97;10540091;28;20768;-72
2022/11/18 11:58:57;;;;;;;9.67;3.93;;;;;;;11.59;54.92;98570.28;10538584;28;20203;-71
2022/11/18 12:04:14;;;;;;;4.83;3.00;;;;;;;11.39;54.70;98586.56;10539429;28;20228;-71
2022/11/18 12:09:47;;;;;;;6.33;3.13;;;;;;;10.31;56.72;98647.88;10519640;28;20677;-71
2022/11/18 12:14:56;;;;;;;6.37;2.90;;;;;;;10.06;55.49;98646.91;10509498;28;20831;-71
2022/11/18 12:19:58;;;;;;;6.53;4.80;;;;;;;10.79;55.64;98609.22;10504452;28;20231;-71
2022/11/18 12:25:38;;;;;;;8.00;6.93;;;;;;;10.74;55.13;98643.78;10503820;28;20248;-74
2022/11/18 12:30:40;;;;;;;6.27;3.17;;;;;;;10.42;56.34;98658.94;10503127;28;20222;-70
2022/11/18 12:35:47;;;;;;;8.67;4.77;;;;;;;10.51;55.77;98671.03;10503476;28;20206;-70
2022/11/18 12:40:49;;;;;;;8.13;4.93;;;;;;;11.21;55.09;98619.47;10504822;28;20238;-71
2022/11/18 12:45:55;;;;;;;5.97;3.47;;;;;;;11.24;54.43;98627.06;10499955;28;20235;-69
2022/11/18 12:50:57;;;;;;;2.60;2.40;;;;;;;11.85;53.25;98606.78;10510639;28;21291;-69
2022/11/18 12:55:59;;;;;;;3.67;2.50;;;;;;;10.97;54.52;98659.34;10500376;28;20814;-69
2022/11/18 13:01:11;;;;;;;5.73;2.70;;;;;;;10.24;55.81;98684.50;10503025;28;20825;-70
2022/11/18 13:06:27;;;;;;;4.83;2.90;;;;;;;11.50;54.17;98609.13;10490393;28;20314;-67
2022/11/18 13:11:43;;;;;;;2.67;2.43;;;;;;;11.08;53.95;98649.81;10494587;28;20225;-69
2022/11/18 13:28:05;;;;;;;4.57;2.70;;;;;;;11.55;52.42;98641.44;10500756;28;20300;-73
2022/11/18 13:33:10;;;;;;;3.33;2.67;;;;;;;11.72;51.88;98677.41;10498308;28;21043;-69
2022/11/18 13:38:23;;;;;;;2.77;2.07;;;;;;;12.27;50.68;98631.09;10492194;28;20678;-70
2022/11/18 13:43:31;;;;;;;5.07;2.40;;;;;;;11.38;51.78;98690.19;10496498;28;20248;-67
2022/11/18 13:48:36;;;;;;;7.60;2.60;;;;;;;11.98;51.58;98640.69;10496131;28;20214;-71
2022/11/18 13:53:39;;;;;;;5.03;2.60;;;;;;;11.70;50.74;98644.63;10502010;28;20221;-71
2022/11/18 13:58:44;;;;;;;4.20;2.10;;;;;;;10.60;51.97;98691.19;10500474;28;20205;-69
2022/11/18 14:04:15;;;;;;;10.00;3.07;;;;;;;13.18;49.98;98652.66;10502181;28;20306;-69
2022/11/18 14:09:27;;;;;;;9.03;3.37;;;;;;;12.41;49.20;98660.44;10495011;28;20211;-69
2022/11/18 14:14:28;;;;;;;4.07;2.73;;;;;;;11.42;51.14;98744.16;10496151;28;20831;-69
2022/11/18 14:19:31;;;;;;;2.97;2.13;;;;;;;12.60;48.93;98672.00;10500152;28;20217;-69
2022/11/18 14:24:33;;;;;;;3.17;2.30;;;;;;;12.62;49.71;98661.88;10504298;28;20230;-69
2022/11/18 14:29:35;;;;;;;6.50;2.50;;;;;;;12.48;48.77;98686.16;10496149;28;20207;-74
2022/11/18 14:34:36;;;;;;;8.90;3.40;;;;;;;12.25;49.96;98704.75;10505626;28;20764;-71
2022/11/18 14:39:38;;;;;;;7.53;2.90;;;;;;;11.19;50.55;98766.94;10497817;28;20203;-70
2022/11/18 14:44:40;;;;;;;6.00;3.50;;;;;;;12.58;49.33;98692.91;10505117;28;20904;-69
2022/11/18 14:49:42;;;;;;;9.70;2.90;;;;;;;12.72;48.96;98705.94;10498053;28;20263;-72
2022/11/18 14:54:43;;;;;;;3.57;2.50;;;;;;;11.59;50.15;98780.13;10490425;28;20196;-71
2022/11/18 14:59:45;;;;;;;3.80;2.90;;;;;;;11.97;48.66;98743.59;10497143;28;20207;-68
2022/11/18 15:04:49;;;;;;;8.27;4.57;;;;;;;12.48;49.02;98747.88;10493084;28;20222;-73
2022/11/18 15:09:51;;;;;;;7.23;3.73;;;;;;;11.74;49.76;98779.03;10490152;28;20845;-69
2022/11/18 15:14:52;;;;;;;6.80;3.33;;;;;;;12.13;48.53;98783.28;10482586;28;20706;-71
2022/11/18 15:19:54;;;;;;;6.03;3.40;;;;;;;12.06;49.27;98801.25;10487962;28;20246;-70
2022/11/18 15:24:56;;;;;;;6.40;2.77;;;;;;;12.18;49.24;98770.03;10491194;28;20483;-71
2022/11/18 15:29:57;;;;;;;8.67;3.90;;;;;;;12.16;48.85;98761.38;10492623;28;20223;-70
2022/11/18 15:35:02;;;;;;;5.57;4.10;;;;;;;12.70;47.99;98745.63;10497834;28;20695;-69
2022/11/18 15:40:04;;;;;;;15.67;10.60;;;;;;;13.24;47.14;98744.94;10487627;28;20886;-69
2022/11/18 15:45:06;;;;;;;7.03;4.40;;;;;;;12.26;48.40;98805.66;10486385;28;20851;-69
2022/11/18 15:50:08;;;;;;;6.13;3.73;;;;;;;14.11;46.48;98741.00;10495703;28;20308;-70
2022/11/18 15:55:10;;;;;;;6.70;4.63;;;;;;;12.40;49.33;98819.75;10500655;28;20221;-70
2022/11/18 16:00:12;;;;;;;8.23;6.30;;;;;;;13.24;48.29;98764.56;10491903;28;20226;-68
2022/11/18 16:05:14;;;;;;;7.03;4.90;;;;;;;14.06;46.24;98735.47;10492416;28;20706;-68
2022/11/18 16:15:42;;;;;;;6.10;3.80;;;;;;;12.19;49.07;98819.94;10497738;28;20252;-70
2022/11/18 16:20:43;;;;;;;7.73;3.57;;;;;;;11.88;50.41;98830.66;10501570;28;20235;-71
2022/11/18 16:25:45;;;;;;;7.73;3.93;;;;;;;12.27;49.22;98820.72;10491267;28;20230;-68
2022/11/18 16:36:08;;;;;;;4.27;3.53;;;;;;;11.65;49.88;98826.69;10491791;28;20226;-68
2022/11/18 16:46:32;;;;;;;6.30;3.93;;;;;;;11.96;49.86;98806.28;10494982;28;20231;-72
2022/11/18 16:51:34;;;;;;;7.20;5.00;;;;;;;12.62;49.04;98775.44;10464950;28;20239;-69
2022/11/18 16:56:39;;;;;;;8.03;5.90;;;;;;;11.85;49.45;98821.22;10499959;28;20207;-70
2022/11/18 17:01:41;;;;;;;8.30;5.73;;;;;;;12.77;48.69;98793.81;10496820;28;20786;-69
2022/11/18 17:06:45;;;;;;;9.50;5.97;;;;;;;12.58;48.25;98784.13;10489533;28;20412;-68
2022/11/18 17:11:47;;;;;;;6.97;4.80;;;;;;;12.92;48.60;98775.50;10490747;28;20491;-70
2022/11/18 17:16:50;;;;;;;11.50;5.27;;;;;;;12.08;49.68;98826.03;10487278;28;20203;-71
2022/11/18 17:21:51;;;;;;;7.60;3.90;;;;;;;12.17;49.75;98838.09;10488704;28;20611;-71
2022/11/18 17:26:54;;;;;;;5.17;3.77;;;;;;;11.37;50.96;98843.06;10494206;28;20664;-68
2022/11/18 17:31:55;;;;;;;4.20;3.20;;;;;;;11.89;49.97;98838.50;10493473;28;20237;-68
2022/11/18 17:36:57;;;;;;;5.40;3.63;;;;;;;12.20;49.04;98799.31;10496474;28;20602;-67
2022/11/18 17:42:12;;;;;;;7.33;3.80;;;;;;;10.53;51.06;98786.69;10491139;28;20275;-69
2022/11/18 17:47:14;;;;;;;6.83;3.50;;;;;;;12.55;48.87;98780.84;10492907;28;20202;-70
2022/11/18 17:52:17;;;;;;;6.33;4.53;;;;;;;11.71;50.29;98833.88;10487121;28;20223;-69
2022/11/18 17:57:19;;;;;;;5.73;3.13;;;;;;;11.56;50.42;98847.53;10490119;28;20210;-68
2022/11/18 18:02:21;;;;;;;5.83;3.30;;;;;;;11.05;52.03;98824.22;10489230;28;20234;-69
2022/11/18 18:07:22;;;;;;;4.83;3.30;;;;;;;12.37;49.02;98743.25;10489251;28;20198;-67
2022/11/18 18:17:47;;;;;;;5.50;3.73;;;;;;;11.32;50.89;98851.78;10498311;28;20477;-67
2022/11/18 18:22:49;;;;;;;4.57;2.77;;;;;;;11.03;51.46;98856.56;10488022;28;20222;-68
2022/11/18 18:27:50;;;;;;;6.27;4.07;;;;;;;12.19;49.46;98784.25;10493195;28;20210;-69
2022/11/18 18:32:54;;;;;;;6.17;3.90;;;;;;;11.38;50.32;98858.13;10492416;28;20526;-69
2022/11/18 18:37:57;;;;;;;4.83;4.20;;;;;;;10.65;51.41;98843.88;10487944;28;20207;-69
2022/11/18 18:42:58;;;;;;;3.30;2.77;;;;;;;10.77;51.34;98868.16;10497504;28;20598;-68
2022/11/18 18:48:03;;;;;;;3.93;2.90;;;;;;;11.92;49.88;98811.25;10483030;28;20679;-68
2022/11/18 18:53:05;;;;;;;4.03;3.13;;;;;;;11.52;49.61;98850.84;10490517;28;20587;-69
2022/11/18 18:58:06;;;;;;;4.17;3.20;;;;;;;11.95;49.24;98810.03;10491121;28;20198;-68
2022/11/18 19:03:08;;;;;;;4.73;3.40;;;;;;;11.82;49.54;98859.16;10494645;28;20230;-68
2022/11/18 19:08:12;;;;;;;3.30;3.00;;;;;;;11.78;49.68;98853.41;10483232;28;20210;-68
2022/11/18 19:13:14;;;;;;;6.07;3.50;;;;;;;12.63;48.08;98817.31;10493588;28;20286;-69
2022/11/18 19:18:16;;;;;;;7.07;4.67;;;;;;;11.58;49.75;98890.19;10489006;28;20206;-69
2022/11/18 19:23:19;;;;;;;5.87;3.40;;;;;;;11.74;49.85;98879.03;10485895;28;20321;-70
2022/11/18 19:28:20;;;;;;;6.00;3.37;;;;;;;10.86;51.48;98866.09;10501069;28;20764;-67
2022/11/18 19:33:22;;;;;;;5.20;3.20;;;;;;;10.67;52.96;98851.69;10499709;28;20776;-68
2022/11/18 19:38:23;;;;;;;4.47;3.50;;;;;;;10.51;53.78;98842.22;10498590;28;20362;-67
2022/11/18 19:43:26;;;;;;;10.30;4.00;;;;;;;11.46;52.20;98817.69;10496665;28;20231;-68
2022/11/18 19:48:27;;;;;;;4.57;3.50;;;;;;;11.30;52.55;98844.97;10501472;28;20377;-67
2022/11/18 19:53:33;;;;;;;4.93;3.40;;;;;;;11.18;52.58;98839.44;10500659;28;20226;-69
2022/11/18 19:58:37;;;;;;;4.43;3.80;;;;;;;9.21;56.06;98765.78;10501643;28;20604;-68
2022/11/18 20:03:43;;;;;;;4.00;3.50;;;;;;;8.27;58.64;98719.13;10504062;28;20264;-68
2022/11/18 20:08:45;;;;;;;6.77;4.07;;;;;;;11.00;53.92;98824.06;10498082;28;20221;-68
2022/11/18 20:13:47;;;;;;;5.00;4.20;;;;;;;9.87;54.33;98806.22;10502879;28;20219;-67
2022/11/18 20:18:54;;;;;;;5.07;4.10;;;;;;;10.14;55.36;98841.81;10497719;28;20469;-68
2022/11/18 20:24:00;;;;;;;5.73;3.90;;;;;;;11.37;53.96;98760.03;10492784;28;20236;-69
2022/11/18 20:29:03;;;;;;;6.67;4.80;;;;;;;10.85;53.75;98848.41;10494810;28;20210;-68
2022/11/18 20:34:05;;;;;;;7.83;4.73;;;;;;;10.17;55.17;98852.09;10496152;28;20492;-68
2022/11/18 20:39:12;;;;;;;8.13;4.27;;;;;;;11.40;53.18;98787.22;10502087;28;20214;-69
2022/11/18 20:44:13;;;;;;;6.67;4.50;;;;;;;13.24;50.12;98740.38;10494729;28;20593;-69
2022/11/18 20:49:15;;;;;;;8.03;4.17;;;;;;;12.77;49.59;98801.88;10499980;28;20203;-69
2022/11/18 20:54:17;;;;;;;6.43;4.80;;;;;;;13.78;47.86;98796.09;10494309;28;20658;-68
2022/11/18 20:59:19;;;;;;;7.03;4.90;;;;;;;13.76;47.79;98804.38;10499039;28;20214;-68
2022/11/18 21:04:21;;;;;;;7.60;5.33;;;;;;;12.77;49.80;98901.19;10491489;28;20325;-67
2022/11/18 21:09:23;;;;;;;12.67;7.47;;;;;;;12.67;50.23;98893.69;10497029;28;20626;-69
2022/11/18 21:14:25;;;;;;;10.27;6.37;;;;;;;10.73;53.23;98895.50;10498011;28;20234;-70
2022/11/18 21:19:28;;;;;;;10.23;7.50;;;;;;;12.91;49.52;98824.06;10503763;28;20756;-68
2022/11/18 21:24:31;;;;;;;9.43;5.97;;;;;;;11.80;51.00;98915.66;10478027;28;20367;-69
2022/11/18 21:29:34;;;;;;;8.33;6.23;;;;;;;12.10;50.12;98922.34;10504679;28;20268;-68
2022/11/18 21:34:36;;;;;;;9.53;6.60;;;;;;;12.15;50.62;98917.16;10496988;28;20230;-69
2022/11/18 21:39:38;;;;;;;9.60;6.57;;;;;;;12.36;50.66;98918.66;10501645;28;20214;-70
2022/11/18 21:44:39;;;;;;;7.03;5.40;;;;;;;10.44;54.76;98887.69;10498896;28;20226;-70
2022/11/18 21:49:41;;;;;;;8.80;5.23;;;;;;;11.25;53.68;98875.91;10516411;28;20768;-69
2022/11/18 21:54:43;;;;;;;10.27;6.13;;;;;;;11.55;52.65;98880.72;10499241;28;20937;-70
2022/11/18 21:59:44;;;;;;;9.20;6.40;;;;;;;12.04;51.74;98848.09;10499562;28;20194;-67
2022/11/18 22:04:52;;;;;;;8.03;6.03;;;;;;;9.78;55.95;98856.31;10496396;28;20246;-69
2022/11/18 22:09:54;;;;;;;9.93;5.30;;;;;;;11.05;53.93;98861.72;10497388;28;20223;-68
2022/11/18 22:14:55;;;;;;;5.57;4.93;;;;;;;11.47;52.99;98839.94;10483363;28;20746;-71
2022/11/18 22:19:57;;;;;;;6.30;5.00;;;;;;;10.78;54.61;98879.69;10478397;28;20239;-71
2022/11/18 22:24:59;;;;;;;7.40;5.07;;;;;;;10.98;53.96;98858.25;10492687;28;20289;-69
2022/11/18 22:30:01;;;;;;;7.13;5.50;;;;;;;10.80;53.98;98893.69;10494803;28;20552;-68
2022/11/18 22:35:02;;;;;;;7.70;5.00;;;;;;;10.59;53.61;98894.69;10492578;28;20203;-68
2022/11/18 22:40:05;;;;;;;6.70;4.50;;;;;;;11.25;52.64;98869.69;10494094;28;20237;-67
2022/11/18 22:45:07;;;;;;;10.00;4.10;;;;;;;9.58;55.89;98866.94;10497345;28;20287;-66
2022/11/18 22:50:09;;;;;;;7.60;4.43;;;;;;;10.78;54.77;98837.72;10496661;28;20734;-67
2022/11/18 22:55:11;;;;;;;10.57;4.50;;;;;;;10.02;55.14;98891.56;10498174;28;20551;-68
2022/11/18 23:00:14;;;;;;;6.23;4.07;;;;;;;9.98;55.07;98907.19;10496206;28;20228;-69
2022/11/18 23:05:16;;;;;;;6.23;5.00;;;;;;;11.62;52.18;98827.09;10482494;28;20227;-67
2022/11/18 23:10:18;;;;;;;7.00;5.67;;;;;;;11.17;53.00;98897.53;10493124;28;20217;-68
2022/11/18 23:15:19;;;;;;;7.07;4.43;;;;;;;10.81;53.97;98911.38;10489690;28;20862;-69
2022/11/18 23:20:21;;;;;;;6.17;5.10;;;;;;;9.10;56.61;98862.44;10491516;28;20230;-68
2022/11/18 23:25:23;;;;;;;7.27;5.67;;;;;;;9.69;57.03;98885.06;10485601;28;20753;-70
2022/11/18 23:30:24;;;;;;;6.60;5.37;;;;;;;10.12;56.29;98889.31;10494695;28;20236;-69
2022/11/18 23:35:26;;;;;;;8.33;5.47;;;;;;;9.61;56.75;98890.59;10486357;28;20218;-67
2022/11/18 23:40:29;;;;;;;8.30;5.70;;;;;;;10.64;54.90;98847.56;10492970;28;20241;-68
2022/11/18 23:45:31;;;;;;;9.97;6.73;;;;;;;10.27;55.60;98907.84;10492895;28;20232;-68
2022/11/18 23:50:33;;;;;;;10.87;6.50;;;;;;;10.01;56.55;98889.94;10493623;28;20454;-68
2022/11/18 23:55:39;;;;;;;9.50;7.20;;;;;;;10.42;55.57;98862.19;10488375;28;20199;-68
